createdAt,value
2023-04-01T00:00:51.810Z,99388.28
2023-04-01T00:03:19.660Z,99399.72
2023-04-01T00:05:47.837Z,99401.47
2023-04-01T00:08:15.581Z,99345.63
2023-04-01T00:10:43.334Z,99397.41
2023-04-01T00:13:12.389Z,99402.78
2023-04-01T00:15:40.660Z,99395.13
2023-04-01T00:18:08.411Z,99401.06
2023-04-01T00:20:36.357Z,99396.41
2023-04-01T00:23:04.124Z,99395.09
2023-04-01T00:25:32.097Z,99385.81
2023-04-01T00:27:59.875Z,99395.31
2023-04-01T00:30:29.001Z,99396.97
2023-04-01T00:32:56.773Z,99404.88
2023-04-01T00:35:24.614Z,99406.81
2023-04-01T00:37:52.763Z,99394.63
2023-04-01T00:40:27.987Z,99371.50
2023-04-01T00:42:55.917Z,99388.47
2023-04-01T00:45:36.521Z,99397.63
2023-04-01T00:48:09.455Z,99382.72
2023-04-01T00:50:39.247Z,99387.94
2023-04-01T00:53:09.071Z,99391.25
2023-04-01T00:55:42.947Z,99386.31
2023-04-01T00:58:15.809Z,99369.66
2023-04-01T01:00:45.324Z,99376.22
2023-04-01T01:03:13.768Z,99387.53
2023-04-01T01:05:58.094Z,99399.19
2023-04-01T01:08:39.099Z,99397.09
2023-04-01T01:11:10.389Z,99399.94
2023-04-01T01:13:50.534Z,99400.53
2023-04-01T01:16:27.736Z,99398.75
2023-04-01T01:19:02.192Z,99403.78
2023-04-01T01:21:56.458Z,99381.94
2023-04-01T01:24:32.283Z,99405.53
2023-04-01T01:27:06.292Z,99362.47
2023-04-01T01:30:10.483Z,99387.91
2023-04-01T01:32:57.136Z,99402.19
2023-04-01T01:35:30.180Z,99406.63
2023-04-01T01:38:02.413Z,99369.28
2023-04-01T01:40:33.496Z,99408.53
2023-04-01T01:43:06.131Z,99408.09
2023-04-01T01:45:37.783Z,99394.66
2023-04-01T01:48:08.917Z,99404.69
2023-04-01T01:50:39.768Z,99402.13
2023-04-01T01:53:09.711Z,99375.97
2023-04-01T01:55:39.499Z,99409.25
2023-04-01T01:58:12.070Z,99417.28
2023-04-01T02:00:40.095Z,99407.09
2023-04-01T02:03:08.357Z,99409.84
2023-04-01T02:05:37.354Z,99414.13
2023-04-01T02:08:10.395Z,99381.63
2023-04-01T02:10:41.912Z,99405.31
2023-04-01T02:13:16.394Z,99394.03
2023-04-01T02:15:49.583Z,99400.56
2023-04-01T02:18:19.476Z,99403.28
2023-04-01T02:20:47.900Z,99414.72
2023-04-01T02:23:17.761Z,99411.13
2023-04-01T02:25:47.180Z,99415.03
2023-04-01T02:28:17.510Z,99364.19
2023-04-01T02:30:46.587Z,99412.69
2023-04-01T02:33:14.462Z,99426.19
2023-04-01T02:35:42.399Z,99428.09
2023-04-01T02:38:10.642Z,99409.31
2023-04-01T02:40:49.515Z,99418.56
2023-04-01T02:43:18.348Z,99399.16
2023-04-01T02:45:46.031Z,99431.78
2023-04-01T02:48:14.999Z,99424.94
2023-04-01T02:50:42.816Z,99427.13
2023-04-01T02:53:10.490Z,99433.47
2023-04-01T02:55:38.191Z,99424.00
2023-04-01T02:58:07.229Z,99434.66
2023-04-01T03:00:34.925Z,99438.41
2023-04-01T03:03:03.706Z,99441.75
2023-04-01T03:05:31.990Z,99449.16
2023-04-01T03:07:59.894Z,99442.22
2023-04-01T03:10:27.690Z,99445.97
2023-04-01T03:12:55.598Z,99446.06
2023-04-01T03:15:24.640Z,99453.00
2023-04-01T03:17:52.418Z,99453.84
2023-04-01T03:20:20.355Z,99445.84
2023-04-01T03:22:48.177Z,99442.31
2023-04-01T03:25:15.936Z,99451.44
2023-04-01T03:27:43.668Z,99460.00
2023-04-01T03:30:11.910Z,99453.28
2023-04-01T03:32:41.057Z,99454.22
2023-04-01T03:35:10.684Z,99452.00
2023-04-01T03:37:38.650Z,99442.41
2023-04-01T03:40:07.804Z,99450.22
2023-04-01T03:42:36.164Z,99456.22
2023-04-01T03:45:04.466Z,99433.97
2023-04-01T03:47:32.552Z,99456.31
2023-04-01T03:50:01.661Z,99466.16
2023-04-01T03:52:29.442Z,99461.41
2023-04-01T03:54:57.439Z,99461.97
2023-04-01T03:57:25.258Z,99460.53
2023-04-01T03:59:52.965Z,99451.72
2023-04-01T04:02:21.523Z,99461.19
2023-04-01T04:04:49.219Z,99464.41
2023-04-01T04:07:18.294Z,99448.63
2023-04-01T04:09:46.050Z,99461.72
2023-04-01T04:12:13.717Z,99448.00
2023-04-01T04:14:41.545Z,99479.19
2023-04-01T04:17:12.846Z,99476.78
2023-04-01T04:19:40.660Z,99474.03
2023-04-01T04:22:08.430Z,99478.06
2023-04-01T04:24:37.730Z,99484.69
2023-04-01T04:27:06.415Z,99482.53
2023-04-01T04:29:34.094Z,99493.91
2023-04-01T04:32:01.926Z,99485.06
2023-04-01T04:34:29.712Z,99491.88
2023-04-01T04:36:57.401Z,99495.19
2023-04-01T04:39:25.085Z,99503.44
2023-04-01T04:41:54.138Z,99509.38
2023-04-01T04:44:21.820Z,99502.53
2023-04-01T04:46:49.566Z,99503.13
2023-04-01T04:49:17.274Z,99502.53
2023-04-01T04:51:45.139Z,99506.81
2023-04-01T04:54:12.807Z,99512.00
2023-04-01T04:56:40.558Z,99508.88
2023-04-01T04:59:09.681Z,99511.34
2023-04-01T05:01:37.415Z,99515.78
2023-04-01T05:04:05.194Z,99527.13
2023-04-01T05:06:32.964Z,99526.13
2023-04-01T05:09:00.792Z,99530.28
2023-04-01T05:11:28.653Z,99527.66
2023-04-01T05:13:56.463Z,99538.00
2023-04-01T05:16:25.657Z,99532.13
2023-04-01T05:18:53.459Z,99540.97
2023-04-01T05:21:21.291Z,99534.16
2023-04-01T05:23:48.986Z,99538.69
2023-04-01T05:26:16.838Z,99533.16
2023-04-01T05:28:44.641Z,99524.44
2023-04-01T05:31:12.554Z,99551.69
2023-04-01T05:33:41.610Z,99543.50
2023-04-01T05:36:10.997Z,99528.34
2023-04-01T05:38:38.786Z,99522.09
2023-04-01T05:41:06.640Z,99543.91
2023-04-01T05:43:34.301Z,99553.88
2023-04-01T05:46:02.094Z,99542.69
2023-04-01T05:48:29.921Z,99533.38
2023-04-01T05:50:59.021Z,99557.09
2023-04-01T05:53:27.003Z,99562.66
2023-04-01T05:55:54.754Z,99561.34
2023-04-01T05:58:22.495Z,99567.53
2023-04-01T06:01:02.225Z,99565.78
2023-04-01T06:03:36.794Z,99560.94
2023-04-01T06:06:16.490Z,99549.03
2023-04-01T06:08:45.324Z,99568.06
2023-04-01T06:11:24.113Z,99580.34
2023-04-01T06:14:06.621Z,99576.19
2023-04-01T06:16:45.315Z,99565.84
2023-04-01T06:19:28.408Z,99582.97
2023-04-01T06:22:16.109Z,99588.59
2023-04-01T06:25:04.924Z,99589.38
2023-04-01T06:27:45.574Z,99557.81
2023-04-01T06:30:32.551Z,99594.47
2023-04-01T06:33:29.872Z,99595.03
2023-04-01T06:36:43.140Z,99614.66
2023-04-01T06:39:32.741Z,99577.16
2023-04-01T06:42:16.150Z,99613.25
2023-04-01T06:44:56.142Z,99620.31
2023-04-01T06:47:37.497Z,99618.13
2023-04-01T06:50:14.344Z,99630.41
2023-04-01T06:52:52.256Z,99620.13
2023-04-01T06:55:29.604Z,99631.78
2023-04-01T06:58:00.442Z,99649.59
2023-04-01T07:00:32.354Z,99638.53
2023-04-01T07:03:10.801Z,99660.28
2023-04-01T07:05:39.014Z,99659.44
2023-04-01T07:08:11.267Z,99657.53
2023-04-01T07:10:48.072Z,99664.63
2023-04-01T07:13:23.031Z,99672.47
2023-04-01T07:15:59.977Z,99674.47
2023-04-01T07:18:38.087Z,99662.75
2023-04-01T07:21:12.364Z,99682.28
2023-04-01T07:23:44.859Z,99663.19
2023-04-01T07:26:21.674Z,99661.47
2023-04-01T07:28:50.736Z,99677.00
2023-04-01T07:31:32.255Z,99714.03
2023-04-01T07:34:07.363Z,99711.59
2023-04-01T07:36:42.059Z,99690.59
2023-04-01T07:39:23.452Z,99716.25
2023-04-01T07:41:58.842Z,99714.91
2023-04-01T07:44:38.729Z,99734.00
2023-04-01T07:47:31.002Z,99730.97
2023-04-01T07:50:12.203Z,99746.94
2023-04-01T07:52:50.913Z,99737.94
2023-04-01T07:55:25.588Z,99755.78
2023-04-01T07:58:04.968Z,99762.31
2023-04-01T08:00:41.694Z,99763.13
2023-04-01T08:03:27.957Z,99745.34
2023-04-01T08:05:59.217Z,99765.66
2023-04-01T08:08:37.674Z,99778.69
2023-04-01T08:11:15.017Z,99774.19
2023-04-01T08:13:48.479Z,99777.94
2023-04-01T08:16:23.598Z,99790.28
2023-04-01T08:18:59.956Z,99772.16
2023-04-01T08:21:33.797Z,99785.81
2023-04-01T08:24:13.372Z,99782.19
2023-04-01T08:26:46.139Z,99789.75
2023-04-01T08:29:19.752Z,99814.44
2023-04-01T08:31:53.820Z,99811.97
2023-04-01T08:34:26.241Z,99824.06
2023-04-01T08:37:01.848Z,99810.66
2023-04-01T08:39:33.974Z,99798.75
2023-04-01T08:42:26.250Z,99798.06
2023-04-01T08:45:26.178Z,99825.78
2023-04-01T08:48:17.217Z,99827.53
2023-04-01T08:51:06.494Z,99834.59
2023-04-01T08:53:51.392Z,99858.84
2023-04-01T08:56:23.314Z,99843.41
2023-04-01T08:59:09.241Z,99848.19
2023-04-01T09:02:08.547Z,99855.59
2023-04-01T09:05:09.602Z,99826.25
2023-04-01T09:07:45.978Z,99860.91
2023-04-01T09:10:33.163Z,99865.09
2023-04-01T09:13:51.377Z,99874.63
2023-04-01T09:16:34.629Z,99869.50
2023-04-01T09:19:19.090Z,99876.50
2023-04-01T09:22:01.122Z,99879.00
2023-04-01T09:24:42.221Z,99884.38
2023-04-01T09:27:22.210Z,99894.06
2023-04-01T09:30:12.500Z,99894.03
2023-04-01T09:33:18.692Z,99910.41
2023-04-01T09:35:50.495Z,99868.41
2023-04-01T09:38:24.586Z,99917.53
2023-04-01T09:40:58.777Z,99871.72
2023-04-01T09:43:32.730Z,99912.63
2023-04-01T09:46:11.728Z,99916.75
2023-04-01T09:48:58.017Z,99862.22
2023-04-01T09:51:37.126Z,99923.78
2023-04-01T09:54:19.570Z,99933.69
2023-04-01T09:57:20.901Z,99942.19
2023-04-01T10:00:05.994Z,99941.13
2023-04-01T10:03:05.463Z,99921.28
2023-04-01T10:06:07.170Z,99930.34
2023-04-01T10:09:14.181Z,99949.06
2023-04-01T10:12:13.954Z,99927.81
2023-04-01T10:15:07.687Z,99952.47
2023-04-01T10:18:06.169Z,99956.78
2023-04-01T10:21:01.723Z,99955.38
2023-04-01T10:24:02.924Z,99971.84
2023-04-01T10:26:50.763Z,99966.34
2023-04-01T10:29:38.588Z,99979.91
2023-04-01T10:32:46.197Z,99977.00
2023-04-01T10:35:37.106Z,99988.03
2023-04-01T10:38:35.717Z,99979.88
2023-04-01T10:41:32.008Z,99990.06
2023-04-01T10:44:42.819Z,99985.31
2023-04-01T10:47:49.661Z,99986.94
2023-04-01T10:50:49.503Z,99994.06
2023-04-01T10:53:36.363Z,99996.47
2023-04-01T10:56:37.604Z,100000.31
2023-04-01T10:59:37.770Z,100015.38
2023-04-01T11:02:52.719Z,99988.25
2023-04-01T11:05:55.704Z,99948.66
2023-04-01T11:08:57.049Z,100024.22
2023-04-01T11:12:02.536Z,100029.91
2023-04-01T11:14:52.536Z,100023.63
2023-04-01T11:17:46.198Z,100035.75
2023-04-01T11:20:44.925Z,100045.09
2023-04-01T11:23:24.778Z,100052.28
2023-04-01T11:26:07.095Z,100054.41
2023-04-01T11:29:13.223Z,100046.03
2023-04-01T11:31:50.016Z,100052.47
2023-04-01T11:34:34.482Z,100051.09
2023-04-01T11:37:14.383Z,100072.78
2023-04-01T11:40:01.937Z,100067.09
2023-04-01T11:42:40.031Z,100068.91
2023-04-01T11:45:24.983Z,100066.16
2023-04-01T11:48:17.006Z,100069.41
2023-04-01T11:50:58.836Z,100081.69
2023-04-01T11:53:36.422Z,100078.16
2023-04-01T11:56:37.986Z,100070.06
2023-04-01T11:59:30.711Z,100099.56
2023-04-01T12:02:04.181Z,100092.09
2023-04-01T12:04:55.587Z,100098.38
2023-04-01T12:07:50.472Z,100099.03
2023-04-01T12:10:22.894Z,100102.16
2023-04-01T12:13:01.578Z,100113.72
2023-04-01T12:15:39.072Z,100123.84
2023-04-01T12:18:19.020Z,100123.06
2023-04-01T12:20:52.417Z,100125.06
2023-04-01T12:23:44.311Z,100135.94
2023-04-01T12:26:28.324Z,100147.09
2023-04-01T12:29:10.614Z,100139.25
2023-04-01T12:31:48.034Z,100152.44
2023-04-01T12:34:45.521Z,100112.91
2023-04-01T12:37:23.131Z,100161.63
2023-04-01T12:40:08.879Z,100147.06
2023-04-01T12:42:54.573Z,100114.22
2023-04-01T12:45:31.324Z,100161.72
2023-04-01T12:48:27.253Z,100160.09
2023-04-01T12:51:32.955Z,100154.16
2023-04-01T12:54:36.372Z,100172.97
2023-04-01T12:57:23.444Z,100175.03
2023-04-01T13:00:09.247Z,100183.91
2023-04-01T13:02:53.566Z,100175.91
2023-04-01T13:05:33.881Z,100185.97
2023-04-01T13:08:17.081Z,100184.44
2023-04-01T13:10:58.869Z,100206.09
2023-04-01T13:14:21.645Z,100205.31
2023-04-01T13:17:09.369Z,100209.41
2023-04-01T13:20:02.023Z,100219.53
2023-04-01T13:22:43.717Z,100224.41
2023-04-01T13:25:21.332Z,100230.44
2023-04-01T13:27:53.131Z,100225.06
2023-04-01T13:30:28.510Z,100236.78
2023-04-01T13:33:03.837Z,100238.81
2023-04-01T13:35:41.291Z,100242.00
2023-04-01T13:38:29.818Z,100242.00
2023-04-01T13:41:08.148Z,100258.63
2023-04-01T13:43:41.551Z,100258.53
2023-04-01T13:46:28.627Z,100259.00
2023-04-01T13:49:15.964Z,100251.22
2023-04-01T13:52:21.048Z,100274.78
2023-04-01T13:55:01.039Z,100272.69
2023-04-01T13:57:45.395Z,100235.91
2023-04-01T14:00:27.826Z,100280.56
2023-04-01T14:03:29.094Z,100288.25
2023-04-01T14:06:07.918Z,100263.09
2023-04-01T14:08:51.091Z,100293.47
2023-04-01T14:11:25.881Z,100296.09
2023-04-01T14:14:04.380Z,100309.72
2023-04-01T14:16:56.283Z,100301.41
2023-04-01T14:19:39.736Z,100306.53
2023-04-01T14:22:21.018Z,100310.69
2023-04-01T14:25:14.930Z,100323.44
2023-04-01T14:27:49.063Z,100325.75
2023-04-01T14:30:42.153Z,100319.84
2023-04-01T14:33:23.150Z,100340.19
2023-04-01T14:36:05.787Z,100335.53
2023-04-01T14:38:49.970Z,100350.34
2023-04-01T14:41:32.749Z,100344.31
2023-04-01T14:44:26.317Z,100341.03
2023-04-01T14:47:29.696Z,100346.19
2023-04-01T14:50:11.802Z,100349.56
2023-04-01T14:52:44.019Z,100358.97
2023-04-01T14:55:30.672Z,100367.56
2023-04-01T14:58:12.062Z,100367.44
2023-04-01T15:00:51.016Z,100374.13
2023-04-01T15:03:25.184Z,100382.75
2023-04-01T15:05:58.382Z,100379.72
2023-04-01T15:08:29.618Z,100385.56
2023-04-01T15:11:28.912Z,100399.13
2023-04-01T15:14:15.045Z,100396.13
2023-04-01T15:16:54.180Z,100411.19
2023-04-01T15:19:33.372Z,100399.56
2023-04-01T15:22:26.202Z,100411.44
2023-04-01T15:25:07.892Z,100419.81
2023-04-01T15:27:46.551Z,100426.81
2023-04-01T15:30:23.793Z,100392.69
2023-04-01T15:33:08.605Z,100428.50
2023-04-01T15:35:46.627Z,100430.34
2023-04-01T15:38:27.574Z,100430.84
2023-04-01T15:41:04.937Z,100449.00
2023-04-01T15:43:43.052Z,100447.81
2023-04-01T15:46:23.939Z,100421.00
2023-04-01T15:49:11.559Z,100462.22
2023-04-01T15:52:04.458Z,100455.97
2023-04-01T15:54:50.887Z,100461.38
2023-04-01T15:57:28.698Z,100480.91
2023-04-01T16:00:11.760Z,100449.47
2023-04-01T16:02:48.718Z,100473.38
2023-04-01T16:05:36.083Z,100482.53
2023-04-01T16:08:27.775Z,100495.44
2023-04-01T16:11:08.657Z,100493.75
2023-04-01T16:13:50.369Z,100493.69
2023-04-01T16:16:31.386Z,100506.63
2023-04-01T16:19:29.147Z,100503.94
2023-04-01T16:22:02.706Z,100511.91
2023-04-01T16:24:37.921Z,100517.06
2023-04-01T16:27:14.094Z,100523.84
2023-04-01T16:29:48.807Z,100529.19
2023-04-01T16:32:39.689Z,100538.72
2023-04-01T16:35:25.093Z,100540.34
2023-04-01T16:37:58.335Z,100547.94
2023-04-01T16:40:39.018Z,100548.06
2023-04-01T16:43:18.180Z,100547.22
2023-04-01T16:45:55.277Z,100562.53
2023-04-01T16:48:30.776Z,100566.84
2023-04-01T16:51:02.188Z,100572.81
2023-04-01T16:53:43.065Z,100547.19
2023-04-01T16:56:15.503Z,100580.59
2023-04-01T16:58:50.433Z,100587.41
2023-04-01T17:01:24.342Z,100595.13
2023-04-01T17:04:00.796Z,100591.75
2023-04-01T17:06:37.993Z,100620.84
2023-04-01T17:09:31.915Z,100583.31
2023-04-01T17:12:07.649Z,100619.13
2023-04-01T17:14:46.489Z,100630.31
2023-04-01T17:17:22.941Z,100626.72
2023-04-01T17:20:17.181Z,100638.69
2023-04-01T17:22:55.081Z,100624.31
2023-04-01T17:25:43.358Z,100649.19
2023-04-01T17:28:25.877Z,100659.41
2023-04-01T17:31:03.254Z,100651.72
2023-04-01T17:33:42.688Z,100683.38
2023-04-01T17:36:21.327Z,100683.38
2023-04-01T17:39:17.601Z,100670.50
2023-04-01T17:41:53.512Z,100697.06
2023-04-01T17:44:35.974Z,100693.63
2023-04-01T17:47:22.052Z,100697.88
2023-04-01T17:50:03.550Z,100702.19
2023-04-01T17:52:37.514Z,100709.91
2023-04-01T17:55:31.577Z,100720.16
2023-04-01T17:58:04.985Z,100728.69
2023-04-01T18:00:52.927Z,100733.03
2023-04-01T18:03:32.204Z,100708.13
2023-04-01T18:06:10.795Z,100745.81
2023-04-01T18:08:57.173Z,100735.59
2023-04-01T18:11:40.108Z,100755.25
2023-04-01T18:14:39.248Z,100757.78
2023-04-01T18:17:20.881Z,100769.78
2023-04-01T18:20:03.926Z,100748.41
2023-04-01T18:22:42.116Z,100779.22
2023-04-01T18:25:23.584Z,100790.34
2023-04-01T18:27:55.963Z,100794.59
2023-04-01T18:30:30.766Z,100786.03
2023-04-01T18:33:04.885Z,100756.84
2023-04-01T18:35:50.054Z,100755.00
2023-04-01T18:38:22.296Z,100824.53
2023-04-01T18:40:59.797Z,100796.16
2023-04-01T18:43:38.718Z,100837.38
2023-04-01T18:46:14.354Z,100828.75
2023-04-01T18:48:54.389Z,100832.91
2023-04-01T18:51:27.342Z,100845.06
2023-04-01T18:53:59.712Z,100835.59
2023-04-01T18:56:33.479Z,100860.31
2023-04-01T18:59:08.108Z,100856.84
2023-04-01T19:01:42.071Z,100855.13
2023-04-01T19:04:25.677Z,100861.09
2023-04-01T19:06:56.663Z,100864.72
2023-04-01T19:09:28.314Z,100869.72
2023-04-01T19:12:37.544Z,100887.84
2023-04-01T19:15:23.221Z,100880.81
2023-04-01T19:18:00.200Z,100890.25
2023-04-01T19:20:36.293Z,100895.16
2023-04-01T19:23:37.331Z,100850.84
2023-04-01T19:26:08.049Z,100895.09
2023-04-01T19:28:51.474Z,100900.47
2023-04-01T19:31:35.744Z,100916.72
2023-04-01T19:34:19.117Z,100920.91
2023-04-01T19:36:52.562Z,100926.94
2023-04-01T19:39:33.594Z,100926.41
2023-04-01T19:42:11.008Z,100933.16
2023-04-01T19:44:50.772Z,100943.31
2023-04-01T19:47:42.550Z,100931.28
2023-04-01T19:50:25.566Z,100963.06
2023-04-01T19:52:57.049Z,100966.84
2023-04-01T19:55:36.641Z,100961.88
2023-04-01T19:58:14.849Z,100968.25
2023-04-01T20:00:47.223Z,100983.03
2023-04-01T20:03:27.486Z,100965.88
2023-04-01T20:06:05.844Z,100989.72
2023-04-01T20:08:40.363Z,100998.22
2023-04-01T20:11:41.090Z,100947.59
2023-04-01T20:14:20.514Z,101011.22
2023-04-01T20:17:20.152Z,101005.88
2023-04-01T20:19:55.782Z,101023.97
2023-04-01T20:22:36.683Z,101022.94
2023-04-01T20:25:13.901Z,100975.19
2023-04-01T20:27:47.615Z,101010.47
2023-04-01T20:30:32.758Z,101038.72
2023-04-01T20:33:21.149Z,101050.19
2023-04-01T20:36:02.452Z,101062.38
2023-04-01T20:39:12.111Z,101062.13
2023-04-01T20:41:48.877Z,101055.97
2023-04-01T20:44:28.886Z,101056.03
2023-04-01T20:47:09.076Z,101015.13
2023-04-01T20:49:43.394Z,101072.44
2023-04-01T20:52:28.239Z,101076.78
2023-04-01T20:55:23.906Z,101094.88
2023-04-01T20:58:04.157Z,101087.00
2023-04-01T21:00:39.590Z,101082.72
2023-04-01T21:03:25.689Z,101101.44
2023-04-01T21:06:24.938Z,101099.66
2023-04-01T21:09:05.036Z,101074.75
2023-04-01T21:11:43.122Z,101110.16
2023-04-01T21:14:37.573Z,101119.28
2023-04-01T21:17:15.096Z,101140.44
2023-04-01T21:19:58.455Z,101102.97
2023-04-01T21:22:43.079Z,101133.41
2023-04-01T21:25:32.624Z,101119.06
2023-04-01T21:28:30.832Z,101135.88
2023-04-01T21:31:24.891Z,101142.22
2023-04-01T21:34:06.034Z,101154.50
2023-04-01T21:36:49.624Z,101159.94
2023-04-01T21:39:43.325Z,101164.22
2023-04-01T21:42:25.586Z,101168.00
2023-04-01T21:45:25.280Z,101175.53
2023-04-01T21:48:19.495Z,101189.19
2023-04-01T21:51:06.843Z,101184.63
2023-04-01T21:54:23.036Z,101194.16
2023-04-01T21:57:28.647Z,101188.44
2023-04-01T22:00:19.976Z,101203.72
2023-04-01T22:03:27.286Z,101207.00
2023-04-01T22:06:02.694Z,101198.16
2023-04-01T22:08:45.605Z,101222.56
2023-04-01T22:11:22.823Z,101221.22
2023-04-01T22:13:57.532Z,101215.56
2023-04-01T22:16:35.396Z,101226.28
2023-04-01T22:19:14.246Z,101212.59
2023-04-01T22:21:52.962Z,101244.47
2023-04-01T22:24:28.862Z,101229.53
2023-04-01T22:27:03.818Z,101253.31
2023-04-01T22:29:42.922Z,101240.59
2023-04-01T22:32:17.928Z,101257.75
2023-04-01T22:34:52.201Z,101260.88
2023-04-01T22:37:25.966Z,101268.47
2023-04-01T22:40:08.573Z,101277.69
2023-04-01T22:42:44.199Z,101278.97
2023-04-01T22:45:50.364Z,101275.59
2023-04-01T22:48:22.770Z,101279.41
2023-04-01T22:50:59.998Z,101294.78
2023-04-01T22:53:45.430Z,101289.94
2023-04-01T22:56:20.717Z,101299.38
2023-04-01T22:58:53.000Z,101292.38
2023-04-01T23:01:26.953Z,101279.41
2023-04-01T23:03:54.765Z,101299.72
2023-04-01T23:06:28.602Z,101302.00
2023-04-01T23:09:08.872Z,101318.31
2023-04-01T23:11:42.993Z,101328.47
2023-04-01T23:14:35.598Z,101285.44
2023-04-01T23:17:25.781Z,101323.25
2023-04-01T23:20:01.460Z,101316.38
2023-04-01T23:22:35.977Z,101330.00
2023-04-01T23:25:17.818Z,101328.81
2023-04-01T23:27:54.080Z,101351.69
2023-04-01T23:30:50.407Z,101346.50
2023-04-01T23:33:25.638Z,101360.19
2023-04-01T23:35:55.857Z,101341.06
2023-04-01T23:38:26.400Z,101372.78
2023-04-01T23:40:56.555Z,101366.53
2023-04-01T23:43:29.181Z,101370.28
2023-04-01T23:45:58.071Z,101358.16
2023-04-01T23:48:31.316Z,101358.97
2023-04-01T23:51:00.022Z,101393.44
2023-04-01T23:53:31.592Z,101389.25
2023-04-01T23:55:59.660Z,101402.44
2023-04-01T23:58:29.655Z,101399.56
